createdAt,value
2023-04-23T00:02:23.184Z,18.40
2023-04-23T00:04:54.351Z,18.40
2023-04-23T00:07:22.123Z,18.40
2023-04-23T00:09:52.615Z,18.40
2023-04-23T00:12:21.112Z,18.30
2023-04-23T00:14:51.730Z,18.30
2023-04-23T00:17:20.050Z,18.30
2023-04-23T00:19:47.867Z,18.30
2023-04-23T00:22:17.050Z,18.30
2023-04-23T00:24:44.435Z,18.30
2023-04-23T00:27:11.886Z,18.20
2023-04-23T00:29:39.371Z,18.30
2023-04-23T00:32:07.748Z,18.20
2023-04-23T00:34:35.130Z,18.20
2023-04-23T00:37:06.138Z,18.20
2023-04-23T00:39:38.730Z,18.20
2023-04-23T00:42:12.422Z,18.20
2023-04-23T00:44:41.892Z,18.20
2023-04-23T00:47:10.659Z,18.10
2023-04-23T00:49:39.425Z,18.10
2023-04-23T00:52:08.942Z,18.10
2023-04-23T00:54:36.235Z,18.10
2023-04-23T00:57:08.036Z,18.00
2023-04-23T00:59:36.322Z,18.00
2023-04-23T01:02:04.411Z,18.00
2023-04-23T01:04:35.509Z,18.00
2023-04-23T01:07:03.726Z,18.00
2023-04-23T01:09:32.557Z,18.00
2023-04-23T01:12:02.620Z,17.90
2023-04-23T01:14:32.427Z,17.90
2023-04-23T01:17:03.061Z,17.90
2023-04-23T01:19:30.910Z,17.80
2023-04-23T01:22:01.262Z,17.80
2023-04-23T01:24:31.457Z,17.80
2023-04-23T01:27:03.859Z,17.70
2023-04-23T01:29:32.442Z,17.70
2023-04-23T01:32:00.460Z,17.70
2023-04-23T01:34:28.346Z,17.70
2023-04-23T01:36:58.610Z,17.70
2023-04-23T01:39:28.540Z,17.60
2023-04-23T01:41:58.470Z,17.60
2023-04-23T01:44:25.800Z,17.60
2023-04-23T01:46:53.563Z,17.60
2023-04-23T01:49:20.869Z,17.60
2023-04-23T01:51:50.517Z,17.50
2023-04-23T01:54:20.084Z,17.50
2023-04-23T01:56:47.388Z,17.50
2023-04-23T01:59:14.692Z,17.50
2023-04-23T02:01:48.752Z,17.50
2023-04-23T02:04:17.826Z,17.40
2023-04-23T02:06:50.004Z,17.40
2023-04-23T02:09:17.380Z,17.40
2023-04-23T02:11:44.867Z,17.40
2023-04-23T02:14:12.361Z,17.40
2023-04-23T02:16:39.884Z,17.30
2023-04-23T02:19:09.876Z,17.40
2023-04-23T02:21:37.162Z,17.40
2023-04-23T02:24:07.092Z,17.40
2023-04-23T02:26:34.561Z,17.40
2023-04-23T02:29:01.816Z,17.30
2023-04-23T02:31:29.204Z,17.30
2023-04-23T02:33:56.479Z,17.30
2023-04-23T02:36:23.906Z,17.40
2023-04-23T02:38:51.368Z,17.30
2023-04-23T02:41:18.617Z,17.30
2023-04-23T02:43:45.922Z,17.30
2023-04-23T02:46:13.196Z,17.30
2023-04-23T02:48:42.822Z,17.40
2023-04-23T02:51:12.335Z,17.30
2023-04-23T02:53:39.611Z,17.40
2023-04-23T02:56:09.427Z,17.40
2023-04-23T02:58:36.775Z,17.40
2023-04-23T03:01:05.242Z,17.40
2023-04-23T03:03:33.723Z,17.40
2023-04-23T03:06:02.827Z,17.40
2023-04-23T03:08:30.225Z,17.40
2023-04-23T03:10:57.484Z,17.40
2023-04-23T03:13:26.150Z,17.40
2023-04-23T03:15:56.047Z,17.40
2023-04-23T03:18:23.774Z,17.50
2023-04-23T03:20:51.074Z,17.50
2023-04-23T03:23:18.338Z,17.50
2023-04-23T03:25:48.184Z,17.50
2023-04-23T03:28:15.454Z,17.50
2023-04-23T03:30:45.225Z,17.50
2023-04-23T03:33:12.535Z,17.50
2023-04-23T03:35:42.176Z,17.50
2023-04-23T03:38:11.534Z,17.50
2023-04-23T03:40:38.833Z,17.50
2023-04-23T03:43:06.156Z,17.50
2023-04-23T03:45:33.422Z,17.50
2023-04-23T03:48:00.809Z,17.50
2023-04-23T03:50:28.182Z,17.50
2023-04-23T03:52:55.699Z,17.50
2023-04-23T03:55:25.382Z,17.50
2023-04-23T03:57:52.643Z,17.50
2023-04-23T04:00:19.955Z,17.50
2023-04-23T04:02:47.466Z,17.50
2023-04-23T04:05:18.030Z,17.50
2023-04-23T04:07:45.431Z,17.50
2023-04-23T04:10:12.852Z,17.50
2023-04-23T04:12:41.805Z,17.50
2023-04-23T04:15:09.593Z,17.50
2023-04-23T04:17:39.210Z,17.50
2023-04-23T04:20:13.347Z,17.40
2023-04-23T04:22:46.807Z,17.40
2023-04-23T04:25:16.709Z,17.40
2023-04-23T04:27:46.166Z,17.40
2023-04-23T04:30:13.947Z,17.40
2023-04-23T04:32:45.678Z,17.40
2023-04-23T04:35:14.531Z,17.40
2023-04-23T04:37:43.818Z,17.40
2023-04-23T04:40:14.717Z,17.40
2023-04-23T04:42:42.720Z,17.40
2023-04-23T04:45:10.491Z,17.40
2023-04-23T04:47:40.063Z,17.40
2023-04-23T04:50:08.065Z,17.50
2023-04-23T04:52:36.336Z,17.50
2023-04-23T04:55:06.826Z,17.50
2023-04-23T04:57:34.149Z,17.50
2023-04-23T05:00:19.077Z,17.50
2023-04-23T05:02:47.991Z,17.60
2023-04-23T05:05:15.452Z,17.60
2023-04-23T05:07:44.864Z,17.60
2023-04-23T05:10:13.352Z,17.60
2023-04-23T05:12:43.616Z,17.60
2023-04-23T05:15:15.458Z,17.70
2023-04-23T05:17:45.610Z,17.70
2023-04-23T05:20:13.121Z,17.70
2023-04-23T05:22:43.563Z,17.70
2023-04-23T05:25:12.163Z,17.70
2023-04-23T05:27:39.974Z,17.80
2023-04-23T05:30:09.574Z,17.80
2023-04-23T05:32:37.285Z,17.80
2023-04-23T05:35:06.151Z,17.80
2023-04-23T05:37:33.505Z,17.90
2023-04-23T05:40:02.624Z,17.90
2023-04-23T05:42:32.081Z,17.90
2023-04-23T05:44:59.415Z,18.00
2023-04-23T05:47:26.936Z,18.00
2023-04-23T05:49:54.359Z,18.00
2023-04-23T05:52:24.000Z,18.10
2023-04-23T05:54:52.182Z,18.10
2023-04-23T05:57:23.996Z,18.10
2023-04-23T05:59:51.426Z,18.10
2023-04-23T06:02:24.048Z,18.10
2023-04-23T06:04:52.700Z,18.20
2023-04-23T06:07:20.729Z,18.20
2023-04-23T06:09:48.135Z,18.20
2023-04-23T06:12:17.540Z,18.20
2023-04-23T06:14:47.713Z,18.30
2023-04-23T06:17:17.754Z,18.30
2023-04-23T06:19:47.568Z,18.30
2023-04-23T06:22:17.209Z,18.30
2023-04-23T06:24:51.258Z,18.40
2023-04-23T06:27:18.691Z,18.40
2023-04-23T06:29:46.207Z,18.40
2023-04-23T06:32:18.381Z,18.40
2023-04-23T06:35:00.776Z,18.40
2023-04-23T06:37:30.886Z,18.40
2023-04-23T06:40:01.489Z,18.50
2023-04-23T06:42:28.826Z,18.60
2023-04-23T06:44:57.138Z,18.70
2023-04-23T06:47:24.443Z,18.70
2023-04-23T06:49:52.209Z,18.80
2023-04-23T06:52:21.798Z,18.90
2023-04-23T06:54:49.320Z,19.00
2023-04-23T06:57:16.632Z,19.20
2023-04-23T06:59:43.996Z,19.30
2023-04-23T07:02:11.295Z,19.40
2023-04-23T07:04:38.784Z,19.50
2023-04-23T07:07:06.648Z,19.60
2023-04-23T07:09:34.068Z,19.70
2023-04-23T07:12:03.817Z,19.70
2023-04-23T07:14:31.118Z,19.80
2023-04-23T07:17:00.957Z,19.80
2023-04-23T07:19:28.417Z,19.90
2023-04-23T07:21:55.892Z,20.00
2023-04-23T07:24:23.211Z,20.00
2023-04-23T07:26:50.563Z,20.00
2023-04-23T07:29:20.274Z,20.20
2023-04-23T07:31:50.284Z,20.30
2023-04-23T07:34:20.531Z,20.30
2023-04-23T07:36:47.824Z,20.40
2023-04-23T07:39:17.584Z,20.50
2023-04-23T07:41:47.316Z,20.60
2023-04-23T07:44:17.136Z,20.70
2023-04-23T07:46:46.816Z,20.70
2023-04-23T07:49:14.252Z,20.80
2023-04-23T07:51:41.629Z,20.90
2023-04-23T07:54:09.391Z,20.90
2023-04-23T07:56:39.284Z,21.00
2023-04-23T07:59:07.740Z,21.00
2023-04-23T08:01:35.067Z,21.10
2023-04-23T08:04:04.914Z,21.10
2023-04-23T08:06:35.172Z,21.20
2023-04-23T08:09:06.408Z,21.30
2023-04-23T08:11:34.086Z,21.30
2023-04-23T08:14:04.054Z,21.30
2023-04-23T08:16:34.282Z,21.40
2023-04-23T08:19:06.213Z,21.40
2023-04-23T08:21:34.168Z,21.50
2023-04-23T08:24:03.238Z,21.50
2023-04-23T08:26:31.503Z,21.60
2023-04-23T08:29:01.075Z,21.70
2023-04-23T08:31:28.763Z,21.70
2023-04-23T08:33:58.499Z,21.80
2023-04-23T08:36:26.850Z,22.00
2023-04-23T08:38:54.150Z,22.10
2023-04-23T08:41:27.325Z,22.20
2023-04-23T08:44:13.533Z,22.30
2023-04-23T08:46:43.752Z,22.40
2023-04-23T08:49:19.100Z,22.50
2023-04-23T08:51:52.806Z,22.70
2023-04-23T08:54:31.597Z,22.70
2023-04-23T08:56:59.469Z,22.90
2023-04-23T08:59:29.738Z,22.90
2023-04-23T09:01:57.845Z,23.00
2023-04-23T09:04:26.071Z,23.10
2023-04-23T09:06:55.879Z,23.20
2023-04-23T09:09:31.733Z,23.20
2023-04-23T09:11:59.076Z,23.30
2023-04-23T09:14:26.443Z,23.40
2023-04-23T09:16:54.868Z,23.50
2023-04-23T09:19:22.838Z,23.60
2023-04-23T09:21:52.915Z,23.70
2023-04-23T09:24:26.061Z,23.70
2023-04-23T09:26:54.869Z,23.80
2023-04-23T09:29:25.203Z,23.80
2023-04-23T09:31:55.354Z,23.80
2023-04-23T09:34:24.812Z,23.80
2023-04-23T09:36:53.137Z,23.80
2023-04-23T09:39:23.949Z,23.80
2023-04-23T09:41:54.565Z,23.80
2023-04-23T09:44:22.974Z,23.70
2023-04-23T09:46:52.942Z,23.70
2023-04-23T09:49:20.623Z,23.70
2023-04-23T09:51:49.008Z,23.60
2023-04-23T09:54:26.065Z,23.60
2023-04-23T09:57:00.881Z,23.60
2023-04-23T09:59:46.826Z,23.60
2023-04-23T10:02:18.899Z,23.60
2023-04-23T10:04:56.300Z,23.60
2023-04-23T10:07:30.529Z,23.60
2023-04-23T10:09:57.814Z,23.50
2023-04-23T10:14:57.493Z,23.50
2023-04-23T10:17:24.983Z,23.50
2023-04-23T10:19:52.719Z,23.50
2023-04-23T10:22:22.768Z,23.50
2023-04-23T10:24:58.229Z,23.50
2023-04-23T10:27:44.570Z,23.50
2023-04-23T10:30:18.898Z,23.50
2023-04-23T10:32:48.324Z,23.50
2023-04-23T10:35:18.136Z,23.40
2023-04-23T10:37:48.228Z,23.40
2023-04-23T10:40:24.695Z,23.30
2023-04-23T10:42:52.131Z,23.40
2023-04-23T10:45:25.285Z,23.40
2023-04-23T10:47:56.270Z,23.30
2023-04-23T10:50:31.160Z,23.40
2023-04-23T10:52:58.990Z,23.40
2023-04-23T10:55:28.701Z,23.40
2023-04-23T10:57:57.735Z,23.40
2023-04-23T11:00:42.105Z,23.50
2023-04-23T11:03:32.872Z,23.50
2023-04-23T11:06:04.639Z,23.60
2023-04-23T11:08:32.812Z,23.60
2023-04-23T11:11:02.084Z,23.60
2023-04-23T11:13:30.334Z,23.60
2023-04-23T11:16:25.075Z,23.60
2023-04-23T11:19:03.845Z,23.60
2023-04-23T11:22:01.451Z,23.60
2023-04-23T11:24:37.356Z,23.50
2023-04-23T11:27:09.434Z,23.50
2023-04-23T11:29:41.752Z,23.50
2023-04-23T11:32:13.670Z,23.50
2023-04-23T11:34:43.351Z,23.50
2023-04-23T11:37:15.402Z,23.40
2023-04-23T11:39:44.811Z,23.50
2023-04-23T11:42:16.360Z,23.50
2023-04-23T11:44:47.100Z,23.50
2023-04-23T11:47:16.803Z,23.60
2023-04-23T11:49:45.279Z,23.60
2023-04-23T11:52:15.261Z,23.70
2023-04-23T11:54:42.553Z,23.70
2023-04-23T11:57:10.424Z,23.70
2023-04-23T11:59:38.118Z,23.80
2023-04-23T12:02:05.593Z,23.80
2023-04-23T12:04:38.702Z,23.80
2023-04-23T12:07:19.316Z,23.80
2023-04-23T12:09:55.381Z,23.80
2023-04-23T12:12:22.657Z,23.90
2023-04-23T12:14:50.066Z,23.90
2023-04-23T12:17:17.347Z,23.90
2023-04-23T12:19:46.802Z,24.00
2023-04-23T12:22:14.141Z,24.00
2023-04-23T12:24:51.560Z,24.10
2023-04-23T12:27:21.961Z,24.10
2023-04-23T12:30:01.976Z,24.10
2023-04-23T12:32:30.329Z,24.10
2023-04-23T12:35:00.136Z,24.10
2023-04-23T12:37:30.361Z,24.10
2023-04-23T12:39:59.466Z,24.10
2023-04-23T12:42:27.240Z,24.10
2023-04-23T12:45:08.713Z,24.20
2023-04-23T12:47:35.984Z,24.20
2023-04-23T12:50:05.696Z,24.20
2023-04-23T12:52:33.145Z,24.20
2023-04-23T12:55:01.391Z,24.30
2023-04-23T12:57:29.085Z,24.30
2023-04-23T12:59:56.602Z,24.40
2023-04-23T13:02:27.930Z,24.40
2023-04-23T13:05:01.289Z,24.50
2023-04-23T13:07:28.857Z,24.60
2023-04-23T13:09:57.241Z,24.60
2023-04-23T13:12:26.979Z,24.60
2023-04-23T13:14:56.664Z,24.60
2023-04-23T13:17:26.265Z,24.70
2023-04-23T13:19:57.135Z,24.80
2023-04-23T13:22:29.947Z,24.80
2023-04-23T13:24:59.835Z,24.90
2023-04-23T13:27:29.453Z,25.00
2023-04-23T13:29:57.118Z,25.00
2023-04-23T13:32:31.827Z,25.10
2023-04-23T13:35:04.073Z,25.10
2023-04-23T13:37:34.026Z,25.10
2023-04-23T13:40:01.641Z,25.10
2023-04-23T13:42:28.899Z,25.10
2023-04-23T13:45:04.874Z,25.10
2023-04-23T13:47:34.690Z,25.10
2023-04-23T13:50:05.498Z,25.00
2023-04-23T13:52:33.567Z,25.00
2023-04-23T13:55:03.985Z,25.00
2023-04-23T13:57:31.272Z,25.00
2023-04-23T14:00:00.188Z,24.90
2023-04-23T14:02:29.963Z,24.90
2023-04-23T14:04:58.537Z,24.90
2023-04-23T14:07:28.060Z,24.80
2023-04-23T14:09:57.469Z,24.80
2023-04-23T14:12:26.202Z,24.80
2023-04-23T14:14:58.524Z,24.70
2023-04-23T14:17:30.384Z,24.70
2023-04-23T14:19:57.881Z,24.70
2023-04-23T14:22:25.196Z,24.70
2023-04-23T14:25:02.519Z,24.60
2023-04-23T14:27:34.499Z,24.60
2023-04-23T14:30:05.428Z,24.60
2023-04-23T14:32:37.799Z,24.50
2023-04-23T14:35:05.547Z,24.50
2023-04-23T14:37:35.285Z,24.50
2023-04-23T14:40:02.628Z,24.40
2023-04-23T14:42:32.128Z,24.40
2023-04-23T14:45:01.959Z,24.40
2023-04-23T14:47:29.311Z,24.40
2023-04-23T14:49:57.555Z,24.30
2023-04-23T14:52:24.940Z,24.30
2023-04-23T14:54:54.022Z,24.30
2023-04-23T14:57:21.478Z,24.20
2023-04-23T14:59:48.789Z,24.20
2023-04-23T15:02:16.290Z,24.20
2023-04-23T15:04:43.664Z,24.20
2023-04-23T15:07:13.440Z,24.10
2023-04-23T15:09:41.006Z,24.10
2023-04-23T15:12:37.443Z,24.10
2023-04-23T15:15:05.981Z,24.10
2023-04-23T15:17:35.649Z,24.10
2023-04-23T15:20:06.234Z,24.10
2023-04-23T15:22:33.482Z,24.00
2023-04-23T15:25:03.119Z,24.00
2023-04-23T15:27:32.728Z,24.00
2023-04-23T15:30:00.033Z,24.00
2023-04-23T15:32:27.413Z,24.00
2023-04-23T15:34:57.291Z,24.00
2023-04-23T15:37:27.797Z,24.00
2023-04-23T15:40:00.828Z,23.90
2023-04-23T15:42:28.122Z,23.90
2023-04-23T15:44:58.142Z,24.00
2023-04-23T15:47:25.618Z,23.90
2023-04-23T15:49:52.865Z,23.90
2023-04-23T15:52:20.381Z,23.90
2023-04-23T15:54:47.734Z,23.90
2023-04-23T15:57:15.071Z,23.90
2023-04-23T15:59:43.855Z,23.90
2023-04-23T16:02:11.375Z,23.90
2023-04-23T16:04:38.905Z,23.80
2023-04-23T16:07:09.289Z,23.80
2023-04-23T16:09:36.759Z,23.90
2023-04-23T16:12:07.275Z,23.80
2023-04-23T16:14:36.122Z,23.80
2023-04-23T16:17:03.459Z,23.80
2023-04-23T16:19:31.142Z,23.80
2023-04-23T16:21:58.418Z,23.80
2023-04-23T16:24:25.778Z,23.70
2023-04-23T16:26:53.049Z,23.70
2023-04-23T16:29:23.359Z,23.70
2023-04-23T16:31:57.955Z,23.70
2023-04-23T16:34:25.791Z,23.70
2023-04-23T16:36:53.085Z,23.60
2023-04-23T16:39:20.769Z,23.60
2023-04-23T16:41:50.376Z,23.60
2023-04-23T16:44:17.727Z,23.50
2023-04-23T16:46:45.071Z,23.50
2023-04-23T16:49:14.952Z,23.50
2023-04-23T16:51:44.825Z,23.50
2023-04-23T16:54:14.206Z,23.50
2023-04-23T16:56:42.357Z,23.50
2023-04-23T16:59:12.192Z,23.40
2023-04-23T17:01:39.519Z,23.40
2023-04-23T17:04:09.593Z,23.40
2023-04-23T17:06:39.614Z,23.40
2023-04-23T17:09:08.825Z,23.30
2023-04-23T17:11:38.319Z,23.30
2023-04-23T17:14:05.659Z,23.30
2023-04-23T17:16:32.959Z,23.30
2023-04-23T17:19:00.329Z,23.30
2023-04-23T17:21:28.549Z,23.30
2023-04-23T17:23:55.816Z,23.30
2023-04-23T17:26:23.090Z,23.20
2023-04-23T17:28:52.753Z,23.20
2023-04-23T17:31:22.393Z,23.20
2023-04-23T17:33:50.438Z,23.20
2023-04-23T17:36:17.775Z,23.20
2023-04-23T17:38:45.958Z,23.20
2023-04-23T17:41:16.878Z,23.10
2023-04-23T17:43:51.498Z,23.10
2023-04-23T17:46:18.830Z,23.10
2023-04-23T17:48:50.609Z,23.10
2023-04-23T17:51:21.548Z,23.00
2023-04-23T17:53:50.460Z,22.90
2023-04-23T17:56:17.849Z,22.90
2023-04-23T17:58:45.258Z,22.80
2023-04-23T18:01:12.976Z,22.70
2023-04-23T18:03:40.430Z,22.70
2023-04-23T18:06:09.233Z,22.60
2023-04-23T18:08:38.383Z,22.50
2023-04-23T18:11:07.922Z,22.40
2023-04-23T18:13:38.581Z,22.30
2023-04-23T18:16:06.014Z,22.20
2023-04-23T18:18:33.349Z,22.10
2023-04-23T18:21:01.954Z,22.10
2023-04-23T18:23:29.547Z,22.00
2023-04-23T18:25:56.991Z,21.90
2023-04-23T18:28:26.883Z,21.80
2023-04-23T18:30:56.596Z,21.80
2023-04-23T18:33:47.846Z,21.70
2023-04-23T18:36:29.604Z,21.60
2023-04-23T18:39:01.912Z,21.60
2023-04-23T18:41:30.096Z,21.50
2023-04-23T18:43:59.766Z,21.40
2023-04-23T18:46:28.951Z,21.40
2023-04-23T18:49:04.473Z,21.30
2023-04-23T18:51:37.738Z,21.20
2023-04-23T18:54:09.969Z,21.10
2023-04-23T18:56:37.266Z,21.10
2023-04-23T18:59:04.569Z,21.00
2023-04-23T19:01:31.856Z,21.00
2023-04-23T19:03:59.331Z,21.00
2023-04-23T19:06:29.161Z,20.90
2023-04-23T19:08:56.367Z,20.90
2023-04-23T19:11:23.680Z,20.90
2023-04-23T19:13:50.917Z,20.80
2023-04-23T19:16:18.422Z,20.70
2023-04-23T19:18:48.547Z,20.70
2023-04-23T19:21:16.105Z,20.70
2023-04-23T19:23:45.724Z,20.60
2023-04-23T19:26:15.577Z,20.60
2023-04-23T19:28:42.830Z,20.60
2023-04-23T19:31:10.742Z,20.50
2023-04-23T19:33:38.081Z,20.50
2023-04-23T19:36:05.541Z,20.50
2023-04-23T19:38:32.882Z,20.50
2023-04-23T19:41:00.428Z,20.40
2023-04-23T19:43:27.680Z,20.40
2023-04-23T19:45:57.293Z,20.40
2023-04-23T19:48:26.877Z,20.30
2023-04-23T19:50:55.318Z,20.30
2023-04-23T19:53:24.701Z,20.30
2023-04-23T19:55:54.123Z,20.30
2023-04-23T19:58:21.433Z,20.30
2023-04-23T20:00:48.907Z,20.20
2023-04-23T20:03:16.530Z,20.20
2023-04-23T20:05:46.041Z,20.20
2023-04-23T20:08:25.913Z,20.10
2023-04-23T20:10:54.050Z,20.10
2023-04-23T20:13:24.048Z,20.10
2023-04-23T20:15:53.706Z,20.10
2023-04-23T20:18:21.788Z,20.10
2023-04-23T20:20:49.859Z,20.10
2023-04-23T20:23:17.146Z,20.10
2023-04-23T20:25:44.427Z,20.00
2023-04-23T20:28:12.071Z,20.00
2023-04-23T20:30:39.361Z,20.00
2023-04-23T20:33:10.456Z,20.00
2023-04-23T20:35:39.648Z,20.00
2023-04-23T20:38:07.840Z,20.00
2023-04-23T20:40:35.510Z,19.90
2023-04-23T20:43:04.857Z,19.90
2023-04-23T20:45:33.120Z,19.90
2023-04-23T20:48:02.380Z,19.90
2023-04-23T20:50:34.316Z,19.80
2023-04-23T20:53:01.600Z,19.80
2023-04-23T20:55:28.991Z,19.80
2023-04-23T20:57:56.315Z,19.80
2023-04-23T21:00:25.818Z,19.80
2023-04-23T21:02:53.814Z,19.70
2023-04-23T21:05:21.738Z,19.70
2023-04-23T21:07:49.047Z,19.70
2023-04-23T21:10:16.319Z,19.70
2023-04-23T21:12:44.087Z,19.70
2023-04-23T21:15:16.808Z,19.70
2023-04-23T21:17:47.730Z,19.60
2023-04-23T21:20:15.531Z,19.60
2023-04-23T21:22:42.927Z,19.60
2023-04-23T21:25:10.453Z,19.60
2023-04-23T21:27:38.102Z,19.50
2023-04-23T21:30:12.288Z,19.50
2023-04-23T21:32:39.624Z,19.50
2023-04-23T21:35:07.576Z,19.60
2023-04-23T21:37:38.111Z,19.50
2023-04-23T21:40:06.244Z,19.50
2023-04-23T21:42:33.671Z,19.50
2023-04-23T21:45:02.802Z,19.50
2023-04-23T21:47:33.462Z,19.60
2023-04-23T21:50:01.505Z,19.60
2023-04-23T21:52:31.292Z,19.60
2023-04-23T21:55:11.462Z,19.60
2023-04-23T21:57:41.872Z,19.60
2023-04-23T22:00:14.108Z,19.60
2023-04-23T22:02:42.987Z,19.60
2023-04-23T22:05:11.080Z,19.60
2023-04-23T22:07:41.392Z,19.60
2023-04-23T22:10:16.036Z,19.60
2023-04-23T22:12:46.599Z,19.60
2023-04-23T22:15:18.584Z,19.60
2023-04-23T22:17:50.312Z,19.50
2023-04-23T22:20:24.027Z,19.60
2023-04-23T22:22:51.330Z,19.50
2023-04-23T22:25:19.627Z,19.50
2023-04-23T22:27:47.221Z,19.50
2023-04-23T22:30:15.466Z,19.50
2023-04-23T22:32:42.871Z,19.50
2023-04-23T22:35:10.127Z,19.50
2023-04-23T22:37:37.951Z,19.50
2023-04-23T22:40:07.719Z,19.40
2023-04-23T22:42:35.641Z,19.40
2023-04-23T22:45:03.306Z,19.40
2023-04-23T22:47:30.735Z,19.40
2023-04-23T22:50:01.644Z,19.40
2023-04-23T22:52:29.025Z,19.40
2023-04-23T22:54:58.850Z,19.40
2023-04-23T22:57:26.490Z,19.40
2023-04-23T22:59:53.807Z,19.40
2023-04-23T23:02:21.102Z,19.40
2023-04-23T23:04:49.124Z,19.40
2023-04-23T23:07:16.478Z,19.40
2023-04-23T23:09:43.967Z,19.40
2023-04-23T23:12:11.512Z,19.40
2023-04-23T23:14:38.815Z,19.40
2023-04-23T23:17:06.478Z,19.40
2023-04-23T23:19:34.128Z,19.40
2023-04-23T23:22:04.010Z,19.40
2023-04-23T23:24:34.705Z,19.40
2023-04-23T23:27:02.967Z,19.40
2023-04-23T23:29:30.240Z,19.40
2023-04-23T23:31:58.116Z,19.40
2023-04-23T23:34:25.646Z,19.40
2023-04-23T23:36:56.372Z,19.40
2023-04-23T23:39:23.817Z,19.30
2023-04-23T23:41:51.131Z,19.40
2023-04-23T23:44:20.765Z,19.30
2023-04-23T23:46:52.029Z,19.30
2023-04-23T23:49:20.373Z,19.30
2023-04-23T23:51:47.945Z,19.30
2023-04-23T23:54:17.431Z,19.30
2023-04-23T23:56:44.687Z,19.30
2023-04-23T23:59:12.072Z,19.30
